Time,TemperatureF,DewpointF,PressureIn,WindDirection,WindDirectionDegrees,WindSpeedMPH,WindSpeedGustMPH,Humidity,HourlyPrecipIn,Conditions,Clouds,dailyrainin,SolarRadiationWatts/m^2,SoftwareType,DateUTC
2013-02-06 00:03:00,42.4,35.4,29.96,WNW,288,3.0,4.0,76,0.00,,,0.00,0,Wunderground v.1.15,2013-02-06 07:03:00,
2013-02-06 00:09:00,42.5,35.5,29.96,WNW,282,3.0,4.0,76,0.00,,,0.00,0,Wunderground v.1.15,2013-02-06 07:09:00,
2013-02-06 00:14:00,42.3,35.3,29.96,West,271,3.0,4.0,76,0.00,,,0.00,0,Wunderground v.1.15,2013-02-06 07:14:00,
2013-02-06 00:20:00,42.2,35.2,29.95,West,277,3.0,4.0,76,0.00,,,0.00,0,Wunderground v.1.15,2013-02-06 07:20:00,
2013-02-06 00:25:00,42.1,35.4,29.96,West,281,4.0,5.0,77,0.00,,,0.00,0,Wunderground v.1.15,2013-02-06 07:25:00,
2013-02-06 00:31:00,42.2,35.5,29.95,WNW,299,4.0,5.0,77,0.00,,,0.00,0,Wunderground v.1.15,2013-02-06 07:31:00,
2013-02-06 00:36:00,42.6,35.9,29.95,WNW,294,4.0,5.0,77,0.00,,,0.00,0,Wunderground v.1.15,2013-02-06 07:36:00,
2013-02-06 00:42:00,42.8,35.4,29.95,WNW,300,4.0,4.0,75,0.00,,,0.00,0,Wunderground v.1.15,2013-02-06 07:42:00,
2013-02-06 00:48:00,42.8,35.8,29.95,WNW,286,4.0,4.0,76,0.00,,,0.00,0,Wunderground v.1.15,2013-02-06 07:48:00,
2013-02-06 00:53:00,42.7,35.3,29.95,WNW,296,4.0,5.0,75,0.00,,,0.00,0,Wunderground v.1.15,2013-02-06 07:53:00,
2013-02-06 00:59:00,42.4,35.4,29.95,NW,312,4.0,6.0,76,0.00,,,0.00,0,Wunderground v.1.15,2013-02-06 07:59:00,
2013-02-06 01:04:00,42.2,35.2,29.95,WNW,298,4.0,6.0,76,0.00,,,0.00,0,Wunderground v.1.15,2013-02-06 08:04:00,
2013-02-06 01:09:00,41.8,35.1,29.95,WNW,300,4.0,6.0,77,0.00,,,0.00,0,Wunderground v.1.15,2013-02-06 08:09:00,
2013-02-06 01:15:00,41.7,35.0,29.95,NW,304,5.0,6.0,77,0.00,,,0.00,0,Wunderground v.1.15,2013-02-06 08:15:00,
2013-02-06 01:21:00,41.8,35.1,29.94,WNW,296,5.0,6.0,77,0.00,,,0.00,0,Wunderground v.1.15,2013-02-06 08:21:00,
2013-02-06 01:26:00,41.8,35.1,29.94,WNW,303,5.0,6.0,77,0.00,,,0.00,0,Wunderground v.1.15,2013-02-06 08:26:00,
2013-02-06 01:31:00,41.8,34.8,29.94,NW,313,5.0,5.0,76,0.00,,,0.00,0,Wunderground v.1.15,2013-02-06 08:31:00,
2013-02-06 01:37:00,41.6,34.6,29.94,NW,304,5.0,5.0,76,0.00,,,0.00,0,Wunderground v.1.15,2013-02-06 08:37:00,
2013-02-06 01:42:00,41.5,34.5,29.94,NW,310,3.0,4.0,76,0.00,,,0.00,0,Wunderground v.1.15,2013-02-06 08:42:00,
2013-02-06 01:47:00,41.2,34.2,29.94,NW,304,3.0,4.0,76,0.00,,,0.00,0,Wunderground v.1.15,2013-02-06 08:47:00,
2013-02-06 01:52:00,40.6,34.0,29.94,WNW,293,3.0,4.0,77,0.00,,,0.00,0,Wunderground v.1.15,2013-02-06 08:52:00,
2013-02-06 01:58:00,40.6,34.3,29.94,WNW,282,2.0,4.0,78,0.00,,,0.00,0,Wunderground v.1.15,2013-02-06 08:58:00,
2013-02-06 02:03:00,41.0,34.3,29.94,West,278,2.0,2.0,77,0.00,,,0.00,0,Wunderground v.1.15,2013-02-06 09:03:00,
2013-02-06 02:09:00,41.2,33.5,29.94,West,261,1.0,2.0,74,0.00,,,0.00,0,Wunderground v.1.15,2013-02-06 09:09:00,
2013-02-06 02:15:00,40.1,32.8,29.94,West,261,0.0,1.0,75,0.00,,,0.00,0,Wunderground v.1.15,2013-02-06 09:15:00,
2013-02-06 02:21:00,39.2,32.6,29.94,West,261,0.0,0.0,77,0.00,,,0.00,0,Wunderground v.1.15,2013-02-06 09:21:00,
2013-02-06 02:26:00,38.9,32.6,29.94,West,261,0.0,0.0,78,0.00,,,0.00,0,Wunderground v.1.15,2013-02-06 09:26:00,
2013-02-06 02:31:00,38.7,32.7,29.94,West,261,0.0,0.0,79,0.00,,,0.00,0,Wunderground v.1.15,2013-02-06 09:31:00,
2013-02-06 02:36:00,38.8,33.2,29.94,West,261,0.0,1.0,80,0.00,,,0.00,0,Wunderground v.1.15,2013-02-06 09:36:00,
2013-02-06 02:41:00,39.5,33.5,29.94,West,261,1.0,1.0,79,0.00,,,0.00,0,Wunderground v.1.15,2013-02-06 09:41:00,
2013-02-06 02:46:00,39.9,33.3,29.94,West,261,1.0,1.0,77,0.00,,,0.00,0,Wunderground v.1.15,2013-02-06 09:46:00,
2013-02-06 02:52:00,40.2,33.6,29.93,West,261,1.0,3.0,77,0.00,,,0.00,0,Wunderground v.1.15,2013-02-06 09:52:00,
2013-02-06 02:57:00,42.4,35.4,29.93,West,261,2.0,3.0,76,0.00,,,0.00,0,Wunderground v.1.15,2013-02-06 09:57:00,
2013-02-06 03:03:00,44.3,35.1,29.93,West,261,3.0,3.0,70,0.00,,,0.00,0,Wunderground v.1.15,2013-02-06 10:03:00,
2013-02-06 03:09:00,45.1,34.8,29.93,West,261,3.0,3.0,67,0.00,,,0.00,0,Wunderground v.1.15,2013-02-06 10:09:00,
2013-02-06 03:15:00,45.2,34.5,29.93,West,261,2.0,3.0,66,0.00,,,0.00,0,Wunderground v.1.15,2013-02-06 10:15:00,
2013-02-06 03:21:00,44.1,33.8,29.93,WNW,299,2.0,2.0,67,0.00,,,0.00,0,Wunderground v.1.15,2013-02-06 10:21:00,
2013-02-06 03:26:00,43.3,34.2,29.93,WNW,292,3.0,4.0,70,0.00,,,0.00,0,Wunderground v.1.15,2013-02-06 10:26:00,
2013-02-06 03:31:00,42.6,33.9,29.93,NW,304,3.0,3.0,71,0.00,,,0.00,0,Wunderground v.1.15,2013-02-06 10:31:00,
2013-02-06 03:36:00,42.4,34.0,29.93,WNW,298,3.0,3.0,72,0.00,,,0.00,0,Wunderground v.1.15,2013-02-06 10:36:00,
2013-02-06 03:42:00,42.9,34.1,29.93,WNW,302,3.0,4.0,71,0.00,,,0.00,0,Wunderground v.1.15,2013-02-06 10:42:00,
2013-02-06 03:47:00,43.0,33.9,29.93,WNW,299,4.0,4.0,70,0.00,,,0.00,0,Wunderground v.1.15,2013-02-06 10:47:00,
2013-02-06 03:52:00,42.9,33.8,29.93,WNW,296,4.0,4.0,70,0.00,,,0.00,0,Wunderground v.1.15,2013-02-06 10:52:00,
2013-02-06 03:57:00,42.5,33.4,29.93,WNW,292,3.0,5.0,70,0.00,,,0.00,0,Wunderground v.1.15,2013-02-06 10:57:00,
2013-02-06 04:02:00,43.4,33.9,29.93,West,273,3.0,5.0,69,0.00,,,0.00,0,Wunderground v.1.15,2013-02-06 11:02:00,
2013-02-06 04:07:00,43.6,33.4,29.93,WNW,292,3.0,5.0,67,0.00,,,0.00,0,Wunderground v.1.15,2013-02-06 11:07:00,
2013-02-06 04:13:00,42.4,33.3,29.93,West,280,3.0,3.0,70,0.00,,,0.00,0,Wunderground v.1.15,2013-02-06 11:13:00,
2013-02-06 04:19:00,44.2,33.6,29.93,West,281,3.0,5.0,66,0.00,,,0.00,0,Wunderground v.1.15,2013-02-06 11:19:00,
2013-02-06 04:24:00,45.6,33.7,29.93,West,261,3.0,4.0,63,0.00,,,0.00,0,Wunderground v.1.15,2013-02-06 11:24:00,
2013-02-06 04:30:00,46.2,33.5,29.93,West,265,4.0,4.0,61,0.00,,,0.00,0,Wunderground v.1.15,2013-02-06 11:30:00,
2013-02-06 04:36:00,46.7,33.5,29.93,West,263,5.0,6.0,60,0.00,,,0.00,0,Wunderground v.1.15,2013-02-06 11:36:00,
2013-02-06 04:42:00,46.7,33.1,29.93,West,263,5.0,5.0,59,0.00,,,0.00,0,Wunderground v.1.15,2013-02-06 11:42:00,
2013-02-06 04:48:00,46.6,33.0,29.93,West,262,4.0,6.0,59,0.00,,,0.00,0,Wunderground v.1.15,2013-02-06 11:48:00,
2013-02-06 04:53:00,46.6,33.4,29.93,West,265,4.0,5.0,60,0.00,,,0.00,0,Wunderground v.1.15,2013-02-06 11:53:00,
2013-02-06 04:58:00,46.6,33.4,29.93,West,275,4.0,5.0,60,0.00,,,0.00,0,Wunderground v.1.15,2013-02-06 11:58:00,
2013-02-06 05:03:00,45.8,32.7,29.93,NW,309,3.0,4.0,60,0.00,,,0.00,0,Wunderground v.1.15,2013-02-06 12:03:00,
2013-02-06 05:09:00,43.9,32.9,29.93,WNW,300,3.0,4.0,65,0.00,,,0.00,0,Wunderground v.1.15,2013-02-06 12:09:00,
2013-02-06 05:14:00,43.8,33.2,29.92,West,265,2.0,4.0,66,0.00,,,0.00,0,Wunderground v.1.15,2013-02-06 12:14:00,
2013-02-06 05:19:00,45.2,33.3,29.92,West,273,3.0,4.0,63,0.00,,,0.00,0,Wunderground v.1.15,2013-02-06 12:19:00,
2013-02-06 05:25:00,45.8,33.5,29.92,West,273,3.0,3.0,62,0.00,,,0.00,0,Wunderground v.1.15,2013-02-06 12:25:00,
2013-02-06 05:30:00,45.5,33.2,29.92,WNW,298,2.0,4.0,62,0.00,,,0.00,0,Wunderground v.1.15,2013-02-06 12:30:00,
2013-02-06 05:35:00,43.3,32.3,29.92,WNW,296,2.0,4.0,65,0.00,,,0.00,0,Wunderground v.1.15,2013-02-06 12:35:00,
2013-02-06 05:40:00,42.4,32.6,29.92,WNW,302,2.0,2.0,68,0.00,,,0.00,0,Wunderground v.1.15,2013-02-06 12:40:00,
2013-02-06 05:46:00,42.2,32.8,29.92,WNW,292,2.0,4.0,69,0.00,,,0.00,0,Wunderground v.1.15,2013-02-06 12:46:00,
2013-02-06 05:51:00,42.1,32.7,29.92,WNW,292,2.0,2.0,69,0.00,,,0.00,0,Wunderground v.1.15,2013-02-06 12:51:00,
2013-02-06 05:56:00,41.5,32.4,29.92,WNW,301,2.0,3.0,70,0.00,,,0.00,0,Wunderground v.1.15,2013-02-06 12:56:00,
2013-02-06 06:02:00,41.5,32.8,29.92,WNW,298,3.0,3.0,71,0.00,,,0.00,0,Wunderground v.1.15,2013-02-06 13:02:00,
2013-02-06 06:07:00,41.7,32.6,29.92,NW,304,3.0,3.0,70,0.00,,,0.00,0,Wunderground v.1.15,2013-02-06 13:07:00,
2013-02-06 06:12:00,41.7,32.6,29.92,WNW,297,3.0,3.0,70,0.00,,,0.00,0,Wunderground v.1.15,2013-02-06 13:12:00,
2013-02-06 06:18:00,41.5,32.4,29.91,WNW,294,3.0,4.0,70,0.00,,,0.00,0,Wunderground v.1.15,2013-02-06 13:18:00,
2013-02-06 06:24:00,41.1,32.4,29.92,WNW,298,4.0,6.0,71,0.00,,,0.00,0,Wunderground v.1.15,2013-02-06 13:24:00,
2013-02-06 06:29:00,40.7,32.4,29.92,WNW,303,5.0,8.0,72,0.00,,,0.00,0,Wunderground v.1.15,2013-02-06 13:29:00,
2013-02-06 06:35:00,40.6,32.3,29.92,NW,313,4.0,6.0,72,0.00,,,0.00,0,Wunderground v.1.15,2013-02-06 13:35:00,
2013-02-06 06:40:00,40.4,32.4,29.92,NW,309,5.0,6.0,73,0.00,,,0.00,0,Wunderground v.1.15,2013-02-06 13:40:00,
2013-02-06 06:45:00,40.6,32.6,29.92,NW,311,5.0,6.0,73,0.00,,,0.00,0,Wunderground v.1.15,2013-02-06 13:45:00,
2013-02-06 06:50:00,40.1,32.1,29.92,NW,307,6.0,6.0,73,0.00,,,0.00,0,Wunderground v.1.15,2013-02-06 13:50:00,
2013-02-06 06:55:00,39.6,32.0,29.92,West,278,5.0,6.0,74,0.00,,,0.00,0,Wunderground v.1.15,2013-02-06 13:55:00,
2013-02-06 07:01:00,39.1,31.8,29.93,West,277,3.0,4.0,75,0.00,,,0.00,0,Wunderground v.1.15,2013-02-06 14:01:00,
2013-02-06 07:06:00,39.0,32.1,29.93,West,277,2.0,4.0,76,0.00,,,0.00,5,Wunderground v.1.15,2013-02-06 14:06:00,
2013-02-06 07:11:00,38.8,31.6,29.93,West,277,0.0,1.0,75,0.00,,,0.00,0,Wunderground v.1.15,2013-02-06 14:11:00,
2013-02-06 07:16:00,38.4,31.2,29.93,West,277,0.0,1.0,75,0.00,,,0.00,7,Wunderground v.1.15,2013-02-06 14:16:00,
2013-02-06 07:21:00,38.1,31.2,29.93,West,277,1.0,1.0,76,0.00,,,0.00,14,Wunderground v.1.15,2013-02-06 14:21:00,
2013-02-06 07:27:00,37.6,31.0,29.93,West,277,1.0,2.0,77,0.00,,,0.00,23,Wunderground v.1.15,2013-02-06 14:27:00,
2013-02-06 07:33:00,37.3,31.1,29.94,West,277,1.0,1.0,78,0.00,,,0.00,35,Wunderground v.1.15,2013-02-06 14:33:00,
2013-02-06 07:38:00,37.5,31.6,29.94,West,265,2.0,2.0,79,0.00,,,0.00,62,Wunderground v.1.15,2013-02-06 14:38:00,
2013-02-06 07:44:00,38.0,32.4,29.94,SW,232,2.0,2.0,80,0.00,,,0.00,88,Wunderground v.1.15,2013-02-06 14:44:00,
2013-02-06 07:50:00,38.9,32.9,29.94,West,263,2.0,2.0,79,0.00,,,0.00,105,Wunderground v.1.15,2013-02-06 14:50:00,
2013-02-06 07:55:00,39.6,33.6,29.94,West,265,2.0,3.0,79,0.00,,,0.00,88,Wunderground v.1.15,2013-02-06 14:55:00,
2013-02-06 08:00:00,40.5,34.2,29.94,West,265,1.0,1.0,78,0.00,,,0.00,139,Wunderground v.1.15,2013-02-06 15:00:00,
2013-02-06 08:06:00,41.7,34.7,29.94,West,265,1.0,1.0,76,0.00,,,0.00,144,Wunderground v.1.15,2013-02-06 15:06:00,
2013-02-06 08:11:00,42.7,35.0,29.94,West,265,0.0,0.0,74,0.00,,,0.00,83,Wunderground v.1.15,2013-02-06 15:11:00,
2013-02-06 08:17:00,43.4,35.0,29.94,West,265,0.0,0.0,72,0.00,,,0.00,86,Wunderground v.1.15,2013-02-06 15:17:00,
2013-02-06 08:23:00,43.9,35.1,29.95,West,265,0.0,1.0,71,0.00,,,0.00,91,Wunderground v.1.15,2013-02-06 15:23:00,
2013-02-06 08:28:00,44.0,35.2,29.95,West,265,0.0,1.0,71,0.00,,,0.00,97,Wunderground v.1.15,2013-02-06 15:28:00,
2013-02-06 08:33:00,44.0,35.2,29.94,West,265,0.0,0.0,71,0.00,,,0.00,113,Wunderground v.1.15,2013-02-06 15:33:00,
2013-02-06 08:38:00,44.3,35.8,29.95,West,265,0.0,2.0,72,0.00,,,0.00,202,Wunderground v.1.15,2013-02-06 15:38:00,
2013-02-06 08:43:00,45.0,35.8,29.95,West,265,0.0,1.0,70,0.00,,,0.00,290,Wunderground v.1.15,2013-02-06 15:43:00,
2013-02-06 08:49:00,46.2,35.8,29.94,West,265,0.0,1.0,67,0.00,,,0.00,339,Wunderground v.1.15,2013-02-06 15:49:00,
2013-02-06 08:54:00,47.4,35.4,29.94,West,265,0.0,0.0,63,0.00,,,0.00,214,Wunderground v.1.15,2013-02-06 15:54:00,
2013-02-06 09:00:00,48.4,35.1,29.95,West,265,0.0,0.0,60,0.00,,,0.00,248,Wunderground v.1.15,2013-02-06 16:00:00,
2013-02-06 09:05:00,49.3,35.1,29.95,West,265,0.0,0.0,58,0.00,,,0.00,367,Wunderground v.1.15,2013-02-06 16:05:00,
2013-02-06 09:11:00,50.4,35.3,29.95,West,265,0.0,0.0,56,0.00,,,0.00,223,Wunderground v.1.15,2013-02-06 16:11:00,
2013-02-06 09:16:00,51.6,35.5,29.95,West,265,0.0,0.0,54,0.00,,,0.00,290,Wunderground v.1.15,2013-02-06 16:16:00,
2013-02-06 09:22:00,52.7,35.6,29.96,West,265,0.0,1.0,52,0.00,,,0.00,329,Wunderground v.1.15,2013-02-06 16:22:00,
2013-02-06 09:27:00,52.8,34.7,29.96,NNW,340,1.0,2.0,50,0.00,,,0.00,294,Wunderground v.1.15,2013-02-06 16:27:00,
2013-02-06 09:32:00,52.6,35.0,29.96,NNW,340,1.0,1.0,51,0.00,,,0.00,288,Wunderground v.1.15,2013-02-06 16:32:00,
2013-02-06 09:37:00,52.8,34.7,29.95,NNW,340,0.0,1.0,50,0.00,,,0.00,429,Wunderground v.1.15,2013-02-06 16:37:00,
2013-02-06 09:42:00,53.3,34.6,29.96,NNW,347,0.0,0.0,49,0.00,,,0.00,408,Wunderground v.1.15,2013-02-06 16:42:00,
2013-02-06 09:47:00,53.9,34.6,29.96,East,80,1.0,2.0,48,0.00,,,0.00,510,Wunderground v.1.15,2013-02-06 16:47:00,
2013-02-06 09:52:00,54.6,34.2,29.96,East,99,1.0,2.0,46,0.00,,,0.00,496,Wunderground v.1.15,2013-02-06 16:52:00,
2013-02-06 09:58:00,54.6,33.7,29.96,WNW,290,1.0,4.0,45,0.00,,,0.00,497,Wunderground v.1.15,2013-02-06 16:58:00,
2013-02-06 10:03:00,54.6,34.2,29.96,WNW,284,2.0,2.0,46,0.00,,,0.00,621,Wunderground v.1.15,2013-02-06 17:03:00,
2013-02-06 10:09:00,55.0,34.6,29.96,WSW,252,1.0,2.0,46,0.00,,,0.00,650,Wunderground v.1.15,2013-02-06 17:09:00,
2013-02-06 10:14:00,56.0,32.6,29.95,South,190,1.0,5.0,41,0.00,,,0.00,541,Wunderground v.1.15,2013-02-06 17:14:00,
2013-02-06 10:20:00,56.4,33.6,29.95,SSE,150,2.0,5.0,42,0.00,,,0.00,561,Wunderground v.1.15,2013-02-06 17:20:00,
2013-02-06 10:25:00,56.8,33.3,29.95,SE,126,3.0,4.0,41,0.00,,,0.00,531,Wunderground v.1.15,2013-02-06 17:25:00,
2013-02-06 10:30:00,57.1,33.6,29.95,SSE,165,3.0,6.0,41,0.00,,,0.00,657,Wunderground v.1.15,2013-02-06 17:30:00,
2013-02-06 10:35:00,57.7,30.2,29.95,SSW,211,5.0,11.0,35,0.00,,,0.00,668,Wunderground v.1.15,2013-02-06 17:35:00,
2013-02-06 10:41:00,57.7,29.5,29.95,SSW,205,8.0,12.0,34,0.00,,,0.00,700,Wunderground v.1.15,2013-02-06 17:41:00,
2013-02-06 10:46:00,58.1,30.6,29.96,SW,231,8.0,11.0,35,0.00,,,0.00,691,Wunderground v.1.15,2013-02-06 17:46:00,
2013-02-06 10:52:00,58.0,30.5,29.95,SW,228,8.0,8.0,35,0.00,,,0.00,613,Wunderground v.1.15,2013-02-06 17:52:00,
2013-02-06 10:57:00,58.1,29.8,29.95,West,274,8.0,9.0,34,0.00,,,0.00,633,Wunderground v.1.15,2013-02-06 17:57:00,
2013-02-06 11:03:00,57.7,30.2,29.95,WSW,246,7.0,9.0,35,0.00,,,0.00,696,Wunderground v.1.15,2013-02-06 18:03:00,
2013-02-06 11:10:00,57.5,27.8,29.95,West,259,7.0,9.0,32,0.00,,,0.00,510,Wunderground v.1.15,2013-02-06 18:10:00,
2013-02-06 11:15:00,57.5,27.8,29.95,SW,223,8.0,10.0,32,0.00,,,0.00,791,Wunderground v.1.15,2013-02-06 18:15:00,
2013-02-06 11:20:00,58.0,28.3,29.95,WSW,237,9.0,9.0,32,0.00,,,0.00,693,Wunderground v.1.15,2013-02-06 18:20:00,
2013-02-06 11:26:00,58.4,27.9,29.95,WSW,243,9.0,12.0,31,0.00,,,0.00,819,Wunderground v.1.15,2013-02-06 18:26:00,
2013-02-06 11:31:00,58.6,28.0,29.95,SSW,209,8.0,8.0,31,0.00,,,0.00,821,Wunderground v.1.15,2013-02-06 18:31:00,
2013-02-06 11:36:00,58.3,27.8,29.95,West,271,8.0,10.0,31,0.00,,,0.00,563,Wunderground v.1.15,2013-02-06 18:36:00,
2013-02-06 11:42:00,58.3,28.5,29.95,WSW,252,8.0,9.0,32,0.00,,,0.00,823,Wunderground v.1.15,2013-02-06 18:42:00,
2013-02-06 11:47:00,58.7,29.6,29.94,WNW,293,8.0,12.0,33,0.00,,,0.00,784,Wunderground v.1.15,2013-02-06 18:47:00,
2013-02-06 11:53:00,58.9,29.1,29.94,WSW,239,8.0,12.0,32,0.00,,,0.00,780,Wunderground v.1.15,2013-02-06 18:53:00,
2013-02-06 11:59:00,59.6,28.9,29.94,SSW,202,8.0,12.0,31,0.00,,,0.00,710,Wunderground v.1.15,2013-02-06 18:59:00,
2013-02-06 12:04:00,59.3,28.6,29.93,SSE,161,7.0,9.0,31,0.00,,,0.00,863,Wunderground v.1.15,2013-02-06 19:04:00,
2013-02-06 12:10:00,59.6,28.9,29.93,SSW,213,8.0,8.0,31,0.00,,,0.00,626,Wunderground v.1.15,2013-02-06 19:10:00,
2013-02-06 12:15:00,59.3,29.4,29.93,SW,236,8.0,8.0,32,0.00,,,0.00,612,Wunderground v.1.15,2013-02-06 19:15:00,
2013-02-06 12:20:00,59.4,29.5,29.93,WSW,246,7.0,7.0,32,0.00,,,0.00,555,Wunderground v.1.15,2013-02-06 19:20:00,
2013-02-06 12:25:00,60.3,30.3,29.92,WSW,252,7.0,16.0,32,0.00,,,0.00,846,Wunderground v.1.15,2013-02-06 19:25:00,
2013-02-06 12:31:00,60.5,28.9,29.92,WSW,245,10.0,11.0,30,0.00,,,0.00,654,Wunderground v.1.15,2013-02-06 19:31:00,
2013-02-06 12:37:00,60.5,31.2,29.92,WSW,257,10.0,12.0,33,0.00,,,0.00,1060,Wunderground v.1.15,2013-02-06 19:37:00,
2013-02-06 12:42:00,60.5,30.5,29.92,West,260,8.0,9.0,32,0.00,,,0.00,719,Wunderground v.1.15,2013-02-06 19:42:00,
2013-02-06 12:47:00,59.7,30.5,29.92,WNW,288,8.0,11.0,33,0.00,,,0.00,388,Wunderground v.1.15,2013-02-06 19:47:00,
2013-02-06 12:53:00,59.2,30.1,29.91,WSW,249,7.0,8.0,33,0.00,,,0.00,383,Wunderground v.1.15,2013-02-06 19:53:00,
2013-02-06 12:58:00,59.3,30.2,29.91,SSW,210,6.0,8.0,33,0.00,,,0.00,529,Wunderground v.1.15,2013-02-06 19:58:00,
2013-02-06 13:03:00,59.2,29.3,29.91,SW,219,7.0,8.0,32,0.00,,,0.00,469,Wunderground v.1.15,2013-02-06 20:03:00,
2013-02-06 13:08:00,59.3,30.2,29.91,South,183,6.0,9.0,33,0.00,,,0.00,789,Wunderground v.1.15,2013-02-06 20:08:00,
2013-02-06 13:14:00,60.7,30.6,29.90,SE,143,4.0,5.0,32,0.00,,,0.00,970,Wunderground v.1.15,2013-02-06 20:14:00,
2013-02-06 13:19:00,62.4,30.5,29.90,SW,214,5.0,10.0,30,0.00,,,0.00,896,Wunderground v.1.15,2013-02-06 20:19:00,
2013-02-06 13:25:00,63.2,30.4,29.90,SW,229,7.0,7.0,29,0.00,,,0.00,833,Wunderground v.1.15,2013-02-06 20:25:00,
2013-02-06 13:30:00,63.4,26.9,29.90,WNW,296,7.0,8.0,25,0.00,,,0.00,803,Wunderground v.1.15,2013-02-06 20:30:00,
2013-02-06 13:35:00,62.7,27.3,29.90,West,261,9.0,12.0,26,0.00,,,0.00,779,Wunderground v.1.15,2013-02-06 20:35:00,
2013-02-06 13:40:00,62.3,26.9,29.90,WNW,288,10.0,13.0,26,0.00,,,0.00,772,Wunderground v.1.15,2013-02-06 20:40:00,
2013-02-06 13:46:00,62.2,27.8,29.90,West,263,11.0,13.0,27,0.00,,,0.00,752,Wunderground v.1.15,2013-02-06 20:46:00,
2013-02-06 13:51:00,62.0,26.7,29.90,WNW,294,10.0,11.0,26,0.00,,,0.00,747,Wunderground v.1.15,2013-02-06 20:51:00,
2013-02-06 13:57:00,62.0,26.7,29.90,WNW,284,9.0,11.0,26,0.00,,,0.00,737,Wunderground v.1.15,2013-02-06 20:57:00,
2013-02-06 14:02:00,62.1,29.4,29.89,WNW,299,8.0,9.0,29,0.00,,,0.00,745,Wunderground v.1.15,2013-02-06 21:02:00,
2013-02-06 14:07:00,62.4,29.7,29.90,WSW,239,9.0,12.0,29,0.00,,,0.00,773,Wunderground v.1.15,2013-02-06 21:07:00,
2013-02-06 14:12:00,62.1,30.3,29.89,NW,307,10.0,14.0,30,0.00,,,0.00,745,Wunderground v.1.15,2013-02-06 21:12:00,
2013-02-06 14:18:00,62.1,30.3,29.90,SW,234,9.0,14.0,30,0.00,,,0.00,306,Wunderground v.1.15,2013-02-06 21:18:00,
2013-02-06 14:23:00,61.4,29.7,29.90,WSW,246,9.0,11.0,30,0.00,,,0.00,320,Wunderground v.1.15,2013-02-06 21:23:00,
2013-02-06 14:29:00,60.9,30.0,29.90,West,262,10.0,13.0,31,0.00,,,0.00,417,Wunderground v.1.15,2013-02-06 21:29:00,
2013-02-06 14:35:00,61.1,30.2,29.90,WSW,256,10.0,14.0,31,0.00,,,0.00,664,Wunderground v.1.15,2013-02-06 21:35:00,
2013-02-06 14:40:00,61.5,31.3,29.90,WSW,252,11.0,11.0,32,0.00,,,0.00,817,Wunderground v.1.15,2013-02-06 21:40:00,
2013-02-06 14:45:00,61.8,31.6,29.90,WSW,254,11.0,13.0,32,0.00,,,0.00,733,Wunderground v.1.15,2013-02-06 21:45:00,
2013-02-06 14:50:00,61.8,31.6,29.90,WSW,252,10.0,13.0,32,0.00,,,0.00,355,Wunderground v.1.15,2013-02-06 21:50:00,
2013-02-06 14:55:00,61.0,31.7,29.91,West,271,9.0,13.0,33,0.00,,,0.00,274,Wunderground v.1.15,2013-02-06 21:55:00,
2013-02-06 15:00:00,60.5,32.0,29.90,WSW,238,7.0,7.0,34,0.00,,,0.00,339,Wunderground v.1.15,2013-02-06 22:00:00,
2013-02-06 15:06:00,60.7,32.1,29.90,WSW,252,7.0,10.0,34,0.00,,,0.00,322,Wunderground v.1.15,2013-02-06 22:06:00,
2013-02-06 15:11:00,60.9,32.3,29.90,WSW,237,7.0,7.0,34,0.00,,,0.00,348,Wunderground v.1.15,2013-02-06 22:11:00,
2013-02-06 15:16:00,61.5,32.8,29.91,SW,233,7.0,9.0,34,0.00,,,0.00,603,Wunderground v.1.15,2013-02-06 22:16:00,
2013-02-06 15:21:00,61.6,31.4,29.90,WSW,246,8.0,12.0,32,0.00,,,0.00,740,Wunderground v.1.15,2013-02-06 22:21:00,
2013-02-06 15:26:00,61.9,30.9,29.91,WSW,254,9.0,12.0,31,0.00,,,0.00,499,Wunderground v.1.15,2013-02-06 22:26:00,
2013-02-06 15:32:00,61.8,31.6,29.90,WSW,250,10.0,12.0,32,0.00,,,0.00,515,Wunderground v.1.15,2013-02-06 22:32:00,
2013-02-06 15:38:00,62.3,30.4,29.90,WSW,250,11.0,13.0,30,0.00,,,0.00,615,Wunderground v.1.15,2013-02-06 22:38:00,
2013-02-06 15:44:00,62.1,30.3,29.90,WSW,238,10.0,13.0,30,0.00,,,0.00,399,Wunderground v.1.15,2013-02-06 22:44:00,
2013-02-06 15:49:00,61.6,30.6,29.91,WSW,254,10.0,14.0,31,0.00,,,0.00,482,Wunderground v.1.15,2013-02-06 22:49:00,
2013-02-06 15:55:00,61.3,30.4,29.91,WSW,254,8.0,10.0,31,0.00,,,0.00,260,Wunderground v.1.15,2013-02-06 22:55:00,
2013-02-06 16:00:00,61.4,30.5,29.91,WSW,246,8.0,8.0,31,0.00,,,0.00,343,Wunderground v.1.15,2013-02-06 23:00:00,
2013-02-06 16:06:00,61.7,30.7,29.91,WSW,251,9.0,14.0,31,0.00,,,0.00,403,Wunderground v.1.15,2013-02-06 23:06:00,
2013-02-06 16:12:00,61.6,31.4,29.91,WSW,254,9.0,9.0,32,0.00,,,0.00,380,Wunderground v.1.15,2013-02-06 23:12:00,
2013-02-06 16:18:00,61.2,31.1,29.91,SW,232,10.0,13.0,32,0.00,,,0.00,357,Wunderground v.1.15,2013-02-06 23:18:00,
2013-02-06 16:24:00,61.3,31.2,29.91,West,263,10.0,13.0,32,0.00,,,0.00,332,Wunderground v.1.15,2013-02-06 23:24:00,
2013-02-06 16:30:00,61.0,31.7,29.91,WSW,237,10.0,10.0,33,0.00,,,0.00,306,Wunderground v.1.15,2013-02-06 23:30:00,
2013-02-06 16:35:00,61.0,31.7,29.91,WSW,238,9.0,13.0,33,0.00,,,0.00,290,Wunderground v.1.15,2013-02-06 23:35:00,
2013-02-06 16:41:00,61.0,31.7,29.91,WSW,240,9.0,10.0,33,0.00,,,0.00,264,Wunderground v.1.15,2013-02-06 23:41:00,
2013-02-06 16:46:00,60.7,31.4,29.91,WSW,241,9.0,13.0,33,0.00,,,0.00,244,Wunderground v.1.15,2013-02-06 23:46:00,
2013-02-06 16:53:00,60.4,31.1,29.92,West,262,9.0,10.0,33,0.00,,,0.00,211,Wunderground v.1.15,2013-02-06 23:53:00,
2013-02-06 16:58:00,60.5,32.0,29.92,WSW,240,8.0,11.0,34,0.00,,,0.00,186,Wunderground v.1.15,2013-02-06 23:58:00,
2013-02-06 17:03:00,60.1,30.9,29.92,WSW,245,9.0,16.0,33,0.00,,,0.00,163,Wunderground v.1.15,2013-02-07 00:03:00,
2013-02-06 17:08:00,59.8,31.3,29.92,WSW,244,9.0,16.0,34,0.00,,,0.00,139,Wunderground v.1.15,2013-02-07 00:08:00,
2013-02-06 17:13:00,59.5,31.1,29.93,West,265,9.0,11.0,34,0.00,,,0.00,116,Wunderground v.1.15,2013-02-07 00:13:00,
2013-02-06 17:19:00,59.3,31.6,29.93,WSW,249,8.0,11.0,35,0.00,,,0.00,93,Wunderground v.1.15,2013-02-07 00:19:00,
2013-02-06 17:24:00,58.9,32.0,29.93,WSW,258,8.0,10.0,36,0.00,,,0.00,70,Wunderground v.1.15,2013-02-07 00:24:00,
2013-02-06 17:29:00,58.7,31.8,29.93,SW,225,8.0,10.0,36,0.00,,,0.00,53,Wunderground v.1.15,2013-02-07 00:29:00,
2013-02-06 17:34:00,58.2,32.0,29.93,WSW,248,7.0,9.0,37,0.00,,,0.00,19,Wunderground v.1.15,2013-02-07 00:34:00,
2013-02-06 17:40:00,57.3,32.5,29.93,WSW,247,7.0,7.0,39,0.00,,,0.00,18,Wunderground v.1.15,2013-02-07 00:40:00,
2013-02-06 17:45:00,57.0,32.3,29.93,WSW,257,6.0,7.0,39,0.00,,,0.00,16,Wunderground v.1.15,2013-02-07 00:45:00,
2013-02-06 17:50:00,56.9,32.8,29.93,WSW,247,6.0,6.0,40,0.00,,,0.00,12,Wunderground v.1.15,2013-02-07 00:50:00,
2013-02-06 17:55:00,56.4,32.4,29.93,WSW,246,6.0,10.0,40,0.00,,,0.00,9,Wunderground v.1.15,2013-02-07 00:55:00,
2013-02-06 18:01:00,55.7,32.3,29.93,WSW,237,6.0,9.0,41,0.00,,,0.00,5,Wunderground v.1.15,2013-02-07 01:01:00,
2013-02-06 18:06:00,55.6,32.2,29.94,West,265,7.0,9.0,41,0.00,,,0.00,0,Wunderground v.1.15,2013-02-07 01:06:00,
2013-02-06 18:11:00,55.5,32.2,29.94,WSW,258,7.0,7.0,41,0.00,,,0.00,0,Wunderground v.1.15,2013-02-07 01:11:00,
2013-02-06 18:17:00,55.2,32.5,29.94,West,269,5.0,7.0,42,0.00,,,0.00,0,Wunderground v.1.15,2013-02-07 01:17:00,
2013-02-06 18:23:00,55.1,33.0,29.95,West,264,5.0,6.0,43,0.00,,,0.00,0,Wunderground v.1.15,2013-02-07 01:23:00,
2013-02-06 18:29:00,55.1,33.0,29.95,West,279,6.0,9.0,43,0.00,,,0.00,0,Wunderground v.1.15,2013-02-07 01:29:00,
2013-02-06 18:35:00,55.0,32.9,29.95,West,269,5.0,9.0,43,0.00,,,0.00,0,Wunderground v.1.15,2013-02-07 01:35:00,
2013-02-06 18:40:00,54.9,33.4,29.95,West,270,5.0,5.0,44,0.00,,,0.00,0,Wunderground v.1.15,2013-02-07 01:40:00,
2013-02-06 18:45:00,54.7,33.2,29.96,WNW,285,5.0,6.0,44,0.00,,,0.00,0,Wunderground v.1.15,2013-02-07 01:45:00,
2013-02-06 18:50:00,54.6,32.5,29.96,West,269,5.0,5.0,43,0.00,,,0.00,0,Wunderground v.1.15,2013-02-07 01:50:00,
2013-02-06 18:55:00,54.6,33.1,29.96,WNW,292,5.0,8.0,44,0.00,,,0.00,0,Wunderground v.1.15,2013-02-07 01:55:00,
2013-02-06 19:01:00,54.8,32.1,29.96,West,267,5.0,6.0,42,0.00,,,0.00,0,Wunderground v.1.15,2013-02-07 02:01:00,
2013-02-06 19:06:00,54.8,32.1,29.96,WNW,286,5.0,7.0,42,0.00,,,0.00,0,Wunderground v.1.15,2013-02-07 02:06:00,
2013-02-06 19:11:00,54.9,32.2,29.97,WNW,288,6.0,6.0,42,0.00,,,0.00,0,Wunderground v.1.15,2013-02-07 02:11:00,
2013-02-06 19:16:00,54.9,32.2,29.97,West,265,6.0,7.0,42,0.00,,,0.00,0,Wunderground v.1.15,2013-02-07 02:16:00,
2013-02-06 19:22:00,54.8,32.7,29.97,West,274,6.0,6.0,43,0.00,,,0.00,0,Wunderground v.1.15,2013-02-07 02:22:00,
2013-02-06 19:28:00,54.6,33.1,29.97,West,275,5.0,8.0,44,0.00,,,0.00,0,Wunderground v.1.15,2013-02-07 02:28:00,
2013-02-06 19:34:00,54.3,32.3,29.97,WNW,286,5.0,6.0,43,0.00,,,0.00,0,Wunderground v.1.15,2013-02-07 02:34:00,
2013-02-06 19:40:00,54.3,32.3,29.98,WNW,284,6.0,7.0,43,0.00,,,0.00,0,Wunderground v.1.15,2013-02-07 02:40:00,
2013-02-06 19:45:00,54.1,32.1,29.98,NW,306,6.0,9.0,43,0.00,,,0.00,0,Wunderground v.1.15,2013-02-07 02:45:00,
2013-02-06 19:50:00,52.7,31.4,29.98,NW,306,5.0,5.0,44,0.00,,,0.00,0,Wunderground v.1.15,2013-02-07 02:50:00,
2013-02-06 19:56:00,52.1,31.9,29.98,West,262,5.0,8.0,46,0.00,,,0.00,0,Wunderground v.1.15,2013-02-07 02:56:00,
2013-02-06 20:01:00,52.7,31.9,29.98,WNW,287,6.0,6.0,45,0.00,,,0.00,0,Wunderground v.1.15,2013-02-07 03:01:00,
2013-02-06 20:06:00,52.6,31.8,29.98,WNW,290,7.0,7.0,45,0.00,,,0.00,0,Wunderground v.1.15,2013-02-07 03:06:00,
2013-02-06 20:12:00,51.2,31.6,29.99,NW,306,5.0,5.0,47,0.00,,,0.00,0,Wunderground v.1.15,2013-02-07 03:12:00,
2013-02-06 20:18:00,49.9,32.0,29.99,WNW,299,5.0,6.0,50,0.00,,,0.00,0,Wunderground v.1.15,2013-02-07 03:18:00,
2013-02-06 20:24:00,49.0,31.6,29.99,NW,309,5.0,5.0,51,0.00,,,0.00,0,Wunderground v.1.15,2013-02-07 03:24:00,
2013-02-06 20:29:00,48.3,31.9,29.99,NW,319,5.0,6.0,53,0.00,,,0.00,0,Wunderground v.1.15,2013-02-07 03:29:00,
2013-02-06 20:34:00,47.8,31.9,29.99,NNW,329,5.0,5.0,54,0.00,,,0.00,0,Wunderground v.1.15,2013-02-07 03:34:00,
2013-02-06 20:40:00,46.8,31.9,29.99,NNW,333,4.0,4.0,56,0.00,,,0.00,0,Wunderground v.1.15,2013-02-07 03:40:00,
2013-02-06 20:45:00,46.5,32.1,30.00,NNW,339,4.0,5.0,57,0.00,,,0.00,0,Wunderground v.1.15,2013-02-07 03:45:00,
2013-02-06 20:50:00,46.6,32.2,30.00,NW,314,4.0,5.0,57,0.00,,,0.00,0,Wunderground v.1.15,2013-02-07 03:50:00,
2013-02-06 20:55:00,46.7,32.3,30.00,NNW,336,4.0,5.0,57,0.00,,,0.00,0,Wunderground v.1.15,2013-02-07 03:55:00,
2013-02-06 21:00:00,46.6,32.2,30.00,NNW,340,4.0,4.0,57,0.00,,,0.00,0,Wunderground v.1.15,2013-02-07 04:00:00,
2013-02-06 21:06:00,46.4,32.0,30.00,NNW,337,3.0,6.0,57,0.00,,,0.00,0,Wunderground v.1.15,2013-02-07 04:06:00,
2013-02-06 21:11:00,46.2,32.2,30.00,NNW,332,4.0,4.0,58,0.00,,,0.00,0,Wunderground v.1.15,2013-02-07 04:11:00,
2013-02-06 21:17:00,46.0,32.5,30.00,NNW,330,4.0,5.0,59,0.00,,,0.00,0,Wunderground v.1.15,2013-02-07 04:17:00,
2013-02-06 21:23:00,45.9,32.8,30.00,NNW,328,4.0,5.0,60,0.00,,,0.00,0,Wunderground v.1.15,2013-02-07 04:23:00,
2013-02-06 21:28:00,45.5,32.4,30.00,NW,315,4.0,6.0,60,0.00,,,0.00,0,Wunderground v.1.15,2013-02-07 04:28:00,
2013-02-06 21:33:00,45.2,32.5,30.00,NW,326,4.0,5.0,61,0.00,,,0.00,0,Wunderground v.1.15,2013-02-07 04:33:00,
2013-02-06 21:38:00,45.0,32.8,30.01,NNW,328,4.0,5.0,62,0.00,,,0.00,0,Wunderground v.1.15,2013-02-07 04:38:00,
2013-02-06 21:43:00,44.9,32.7,30.01,NNW,327,3.0,4.0,62,0.00,,,0.00,0,Wunderground v.1.15,2013-02-07 04:43:00,
2013-02-06 21:49:00,44.8,33.0,30.01,NNW,327,2.0,4.0,63,0.00,,,0.00,0,Wunderground v.1.15,2013-02-07 04:49:00,
2013-02-06 21:55:00,44.6,32.4,30.02,NNW,327,1.0,2.0,62,0.00,,,0.00,0,Wunderground v.1.15,2013-02-07 04:55:00,
2013-02-06 22:00:00,44.2,32.4,30.02,NNW,327,0.0,0.0,63,0.00,,,0.00,0,Wunderground v.1.15,2013-02-07 05:00:00,
2013-02-06 22:02:00,44.1,32.7,30.02,NNW,327,0.0,0.0,64,0.00,,,0.00,0,Wunderground v.1.15,2013-02-07 05:02:00,
2013-02-06 22:05:00,43.9,32.5,30.02,NNW,327,0.0,0.0,64,0.00,,,0.00,0,Wunderground v.1.15,2013-02-07 05:05:00,
2013-02-06 22:07:00,43.9,32.5,30.02,NNW,327,0.0,0.0,64,0.00,,,0.00,0,Wunderground v.1.15,2013-02-07 05:07:00,
2013-02-06 22:12:00,43.7,32.7,30.02,NNW,327,0.0,0.0,65,0.00,,,0.00,0,Wunderground v.1.15,2013-02-07 05:12:00,
2013-02-06 22:17:00,43.8,32.8,30.02,NNW,327,0.0,2.0,65,0.00,,,0.00,0,Wunderground v.1.15,2013-02-07 05:17:00,
2013-02-06 22:23:00,43.9,32.9,30.03,NNW,327,0.0,0.0,65,0.00,,,0.00,0,Wunderground v.1.15,2013-02-07 05:23:00,
2013-02-06 22:28:00,43.8,32.8,30.03,NNW,327,0.0,0.0,65,0.00,,,0.00,0,Wunderground v.1.15,2013-02-07 05:28:00,
2013-02-06 22:33:00,43.7,32.7,30.03,NNW,327,0.0,1.0,65,0.00,,,0.00,0,Wunderground v.1.15,2013-02-07 05:33:00,
2013-02-06 22:38:00,43.7,32.7,30.03,NNW,327,0.0,1.0,65,0.00,,,0.00,0,Wunderground v.1.15,2013-02-07 05:38:00,
2013-02-06 22:44:00,43.3,32.7,30.03,NNW,327,0.0,0.0,66,0.00,,,0.00,0,Wunderground v.1.15,2013-02-07 05:44:00,
2013-02-06 22:51:00,43.1,32.5,30.03,NNW,327,0.0,0.0,66,0.00,,,0.00,0,Wunderground v.1.15,2013-02-07 05:51:00,
2013-02-06 22:56:00,43.2,33.0,30.03,NNW,327,0.0,0.0,67,0.00,,,0.00,0,Wunderground v.1.15,2013-02-07 05:56:00,
2013-02-06 23:02:00,43.3,32.7,30.03,SW,220,0.0,1.0,66,0.00,,,0.00,0,Wunderground v.1.15,2013-02-07 06:02:00,
2013-02-06 23:08:00,43.5,32.9,30.03,SSW,202,1.0,4.0,66,0.00,,,0.00,0,Wunderground v.1.15,2013-02-07 06:08:00,
2013-02-06 23:14:00,43.7,33.1,30.03,WNW,302,1.0,1.0,66,0.00,,,0.00,0,Wunderground v.1.15,2013-02-07 06:14:00,
2013-02-06 23:19:00,43.4,32.8,30.03,WNW,302,0.0,1.0,66,0.00,,,0.00,0,Wunderground v.1.15,2013-02-07 06:19:00,
2013-02-06 23:24:00,43.0,32.8,30.03,WNW,302,0.0,1.0,67,0.00,,,0.00,0,Wunderground v.1.15,2013-02-07 06:24:00,
2013-02-06 23:29:00,42.3,32.5,30.03,WNW,302,1.0,1.0,68,0.00,,,0.00,0,Wunderground v.1.15,2013-02-07 06:29:00,
2013-02-06 23:35:00,42.0,32.6,30.03,WNW,294,1.0,2.0,69,0.00,,,0.00,0,Wunderground v.1.15,2013-02-07 06:35:00,
2013-02-06 23:40:00,41.6,32.5,30.03,West,277,1.0,2.0,70,0.00,,,0.00,0,Wunderground v.1.15,2013-02-07 06:40:00,
2013-02-06 23:45:00,41.0,32.0,30.03,West,276,1.0,2.0,70,0.00,,,0.00,0,Wunderground v.1.15,2013-02-07 06:45:00,
2013-02-06 23:50:00,40.3,32.0,30.03,West,276,1.0,1.0,72,0.00,,,0.00,0,Wunderground v.1.15,2013-02-07 06:50:00,
2013-02-06 23:56:00,39.5,31.9,30.03,West,276,1.0,1.0,74,0.00,,,0.00,0,Wunderground v.1.15,2013-02-07 06:56:00,